Time;durP1;ratioP1;P1;durP2;ratioP2;P2;SDS_P1;SDS_P2;PMS_P1;PMS_P2;Temp;Humidity;BMP_temperature;BMP_pressure;BME280_temperature;BME280_humidity;BME280_pressure;Samples;Min_cycle;Max_cycle;Signal;HPM_P1;HPM_P2
2021/03/26 00:01:49;;;;;;;44.97;21.70;;;;;;;3.71;55.94;95021.84;4973137;28;20214;-66
2021/03/26 00:04:15;;;;;;;45.33;22.63;;;;;;;3.77;54.97;95019.09;4972213;28;20228;-66
2021/03/26 00:06:42;;;;;;;40.73;21.33;;;;;;;3.66;55.82;95018.53;4955675;28;20291;-66
2021/03/26 00:09:10;;;;;;;53.03;20.13;;;;;;;3.67;55.64;95014.78;4956070;28;20220;-66
2021/03/26 00:11:35;;;;;;;47.97;20.63;;;;;;;3.57;55.69;95022.94;4973031;28;20208;-66
2021/03/26 00:14:01;;;;;;;44.33;20.43;;;;;;;3.43;56.58;95020.34;4973136;28;20174;-66
2021/03/26 00:16:27;;;;;;;49.83;20.77;;;;;;;3.61;56.31;95022.03;4973026;28;20261;-66
2021/03/26 00:18:53;;;;;;;42.20;20.70;;;;;;;3.59;56.89;95026.03;4955525;28;20232;-67
2021/03/26 00:21:18;;;;;;;45.30;21.10;;;;;;;3.44;55.69;95022.66;4973132;28;20166;-66
2021/03/26 00:23:44;;;;;;;46.77;21.63;;;;;;;3.50;55.51;95030.47;4972509;28;20168;-66
2021/03/26 00:26:10;;;;;;;48.50;21.53;;;;;;;3.35;56.28;95018.38;4971698;28;20190;-66
2021/03/26 00:28:35;;;;;;;53.20;23.20;;;;;;;3.65;55.15;95022.25;4971459;28;20182;-67
2021/03/26 00:31:01;;;;;;;49.43;21.40;;;;;;;3.76;55.29;95018.31;4971790;28;20256;-67
2021/03/26 00:33:26;;;;;;;44.13;21.67;;;;;;;3.76;55.44;95028.06;4972737;28;20179;-68
2021/03/26 00:35:54;;;;;;;47.60;22.03;;;;;;;3.67;55.67;95020.06;4972892;28;20225;-66
2021/03/26 00:38:19;;;;;;;41.42;21.25;;;;;;;3.64;56.15;95025.94;4955414;28;20221;-67
2021/03/26 00:40:45;;;;;;;45.87;22.60;;;;;;;3.84;55.40;95020.22;4972879;28;20170;-68
2021/03/26 00:43:11;;;;;;;49.25;22.38;;;;;;;3.72;56.48;95018.09;4972677;28;20684;-67
2021/03/26 00:45:37;;;;;;;50.07;23.53;;;;;;;3.63;57.45;95019.88;4971207;28;20186;-66
2021/03/26 00:48:03;;;;;;;51.40;22.67;;;;;;;3.58;56.53;95017.34;4972765;28;20317;-66
2021/03/26 00:50:40;;;;;;;49.90;23.00;;;;;;;3.77;55.74;95027.00;4971469;28;20182;-66
2021/03/26 00:53:17;;;;;;;52.35;23.17;;;;;;;3.59;56.69;95020.75;4956784;28;20218;-68
2021/03/26 00:55:43;;;;;;;45.40;20.75;;;;;;;3.54;57.17;95023.53;4955558;28;20185;-68
2021/03/26 00:58:08;;;;;;;42.67;22.47;;;;;;;3.32;57.64;95022.41;4955518;28;20205;-66
2021/03/26 01:00:36;;;;;;;44.50;23.50;;;;;;;3.55;57.18;95019.81;4972526;28;20637;-68
2021/03/26 01:03:02;;;;;;;50.08;23.40;;;;;;;3.64;56.27;95020.66;4972655;28;20265;-68
2021/03/26 01:05:32;;;;;;;48.63;22.03;;;;;;;3.54;56.77;95029.59;4972421;28;20210;-69
2021/03/26 01:07:57;;;;;;;51.88;23.02;;;;;;;3.52;57.37;95013.25;4972424;28;20654;-69
2021/03/26 01:10:25;;;;;;;48.53;22.80;;;;;;;3.52;56.72;95028.31;4972362;28;20182;-68
2021/03/26 01:12:51;;;;;;;47.92;22.58;;;;;;;3.47;57.26;95026.56;4972546;28;20182;-68
2021/03/26 01:15:18;;;;;;;47.43;22.67;;;;;;;3.46;57.40;95022.38;4972331;28;20202;-66
2021/03/26 01:17:44;;;;;;;51.28;22.05;;;;;;;3.33;57.67;95021.31;4955372;28;20175;-66
2021/03/26 01:20:12;;;;;;;56.83;23.50;;;;;;;3.45;57.17;95021.59;4972190;28;20221;-67
2021/03/26 01:22:37;;;;;;;46.67;21.88;;;;;;;3.43;56.49;95021.09;4955427;28;20206;-67
2021/03/26 01:25:08;;;;;;;48.10;23.03;;;;;;;3.52;57.03;95017.75;4972298;28;20257;-66
2021/03/26 01:27:34;;;;;;;48.33;23.60;;;;;;;3.26;58.10;95026.22;4972274;28;20657;-67
2021/03/26 01:30:00;;;;;;;47.17;22.77;;;;;;;3.33;56.62;95018.69;4971911;28;20193;-67
2021/03/26 01:32:25;;;;;;;46.67;21.57;;;;;;;3.43;56.79;95020.34;4975794;28;20175;-66
2021/03/26 01:34:51;;;;;;;52.30;24.30;;;;;;;2.98;58.38;95019.38;4958738;28;20580;-66
2021/03/26 01:37:16;;;;;;;44.07;20.53;;;;;;;3.13;57.74;95024.34;4975690;28;20229;-66
2021/03/26 01:39:42;;;;;;;39.30;19.43;;;;;;;3.18;56.83;95019.75;4973809;28;20689;-67
2021/03/26 01:42:24;;;;;;;41.63;20.40;;;;;;;3.18;57.72;95021.63;4974572;28;20179;-66
2021/03/26 01:44:50;;;;;;;45.15;21.25;;;;;;;3.40;56.04;95019.03;4975947;28;20226;-68
2021/03/26 01:47:15;;;;;;;47.23;23.50;;;;;;;3.25;56.31;95022.00;4958464;28;20186;-66
2021/03/26 01:49:41;;;;;;;48.93;23.13;;;;;;;3.23;57.30;95026.78;4957735;28;20194;-67
2021/03/26 01:52:06;;;;;;;47.00;22.47;;;;;;;3.27;56.84;95033.06;4975624;28;20178;-66
2021/03/26 01:54:32;;;;;;;44.17;21.00;;;;;;;3.05;57.00;95025.03;4975694;28;20197;-67
2021/03/26 01:56:57;;;;;;;48.83;21.50;;;;;;;3.17;57.82;95036.66;4975506;28;20174;-68
2021/03/26 01:59:23;;;;;;;44.53;20.20;;;;;;;2.79;58.65;95033.41;4975584;28;20206;-66
2021/03/26 02:01:56;;;;;;;44.27;20.83;;;;;;;2.96;57.81;95037.34;4975626;28;20174;-67
2021/03/26 02:04:25;;;;;;;48.55;22.52;;;;;;;3.04;57.26;95032.19;4958605;28;20653;-66
2021/03/26 02:06:52;;;;;;;48.53;21.70;;;;;;;3.03;57.68;95035.91;4958491;28;20221;-68
2021/03/26 02:09:19;;;;;;;53.92;23.17;;;;;;;3.04;57.89;95044.59;4958065;28;20174;-67
2021/03/26 02:11:51;;;;;;;43.72;21.20;;;;;;;3.09;57.71;95057.69;4975460;28;20174;-67
2021/03/26 02:14:22;;;;;;;43.28;21.45;;;;;;;3.26;56.29;95046.56;4958465;28;20194;-68
2021/03/26 02:16:48;;;;;;;45.95;21.30;;;;;;;3.08;57.10;95054.25;4975286;28;20178;-67
2021/03/26 02:19:20;;;;;;;44.17;19.83;;;;;;;2.79;58.04;95054.53;4974879;28;20584;-66
2021/03/26 02:21:46;;;;;;;47.28;21.70;;;;;;;2.80;58.35;95060.56;4958186;28;20248;-67
2021/03/26 02:24:11;;;;;;;42.97;20.20;;;;;;;2.74;58.33;95054.59;4957593;28;20705;-67
2021/03/26 02:26:44;;;;;;;39.70;19.97;;;;;;;2.95;57.31;95049.75;4958020;28;20174;-67
2021/03/26 02:29:24;;;;;;;46.30;20.70;;;;;;;3.00;57.52;95054.16;4957781;28;20712;-68
2021/03/26 02:32:05;;;;;;;43.20;19.48;;;;;;;3.18;55.94;95056.69;4973870;28;20657;-68
2021/03/26 02:34:30;;;;;;;44.60;19.02;;;;;;;3.25;55.25;95052.88;4975071;28;20739;-69
2021/03/26 02:37:04;;;;;;;40.47;19.17;;;;;;;3.27;54.59;95054.16;4974966;28;20262;-67
2021/03/26 02:39:50;;;;;;;34.83;19.63;;;;;;;3.26;54.73;95054.47;4958309;28;20202;-67
2021/03/26 02:42:34;;;;;;;41.35;19.60;;;;;;;3.18;55.35;95063.84;4956595;28;20205;-66
2021/03/26 02:45:21;;;;;;;44.00;18.63;;;;;;;3.15;55.25;95054.66;4941637;28;20174;-67
2021/03/26 02:47:52;;;;;;;43.35;20.42;;;;;;;3.15;55.33;95067.06;4959775;28;20688;-67
2021/03/26 02:50:32;;;;;;;41.55;18.67;;;;;;;3.11;55.40;95068.72;4974766;28;20186;-67
2021/03/26 02:53:03;;;;;;;49.70;19.95;;;;;;;3.10;55.09;95070.59;4959156;28;20166;-67
2021/03/26 02:56:03;;;;;;;37.47;18.35;;;;;;;3.18;55.08;95080.44;4957163;28;20182;-67
2021/03/26 02:58:30;;;;;;;52.30;20.15;;;;;;;3.09;55.57;95078.81;4959088;28;20280;-66
2021/03/26 03:01:06;;;;;;;43.83;19.88;;;;;;;3.14;55.20;95079.47;4957139;28;20180;-66
2021/03/26 03:03:31;;;;;;;43.80;21.45;;;;;;;3.11;54.95;95082.69;4972993;28;20201;-66
2021/03/26 03:05:59;;;;;;;42.73;20.03;;;;;;;3.16;55.44;95085.25;4957063;28;20178;-67
2021/03/26 03:08:27;;;;;;;45.47;20.20;;;;;;;3.16;55.37;95082.59;4957303;28;20182;-68
2021/03/26 03:10:54;;;;;;;40.35;19.83;;;;;;;3.22;56.04;95080.66;4957081;28;20185;-67
2021/03/26 03:13:30;;;;;;;43.45;19.70;;;;;;;3.14;56.23;95083.94;4957153;28;20602;-67
2021/03/26 03:15:57;;;;;;;40.42;19.33;;;;;;;3.03;56.91;95085.22;4957165;28;20188;-67
2021/03/26 03:18:30;;;;;;;44.00;19.55;;;;;;;3.08;57.26;95085.13;4973047;28;20210;-67
2021/03/26 03:21:10;;;;;;;44.38;19.20;;;;;;;2.93;57.41;95080.94;4957063;28;20190;-67
2021/03/26 03:23:41;;;;;;;38.15;19.52;;;;;;;2.87;57.72;95080.22;4958271;28;20646;-67
2021/03/26 03:26:25;;;;;;;38.33;19.13;;;;;;;3.02;57.01;95078.38;4940613;28;20186;-67
2021/03/26 03:29:12;;;;;;;39.97;19.25;;;;;;;2.99;57.58;95086.91;4957838;28;20267;-67
2021/03/26 03:31:50;;;;;;;36.40;18.77;;;;;;;2.91;57.33;95083.84;4957284;28;20265;-68
2021/03/26 03:34:38;;;;;;;43.95;18.98;;;;;;;2.96;57.06;95096.16;4973669;28;20253;-68
2021/03/26 03:37:44;;;;;;;34.95;18.30;;;;;;;3.00;56.40;95091.88;4973803;28;20190;-68
2021/03/26 03:40:19;;;;;;;41.28;17.80;;;;;;;3.01;57.26;95100.56;4956469;28;20345;-67
2021/03/26 03:43:06;;;;;;;37.17;18.55;;;;;;;2.83;58.15;95094.28;4956559;28;20170;-67
2021/03/26 03:45:53;;;;;;;40.58;18.52;;;;;;;3.00;57.70;95110.34;4954066;28;20272;-68
2021/03/26 03:48:24;;;;;;;36.60;17.92;;;;;;;3.00;57.70;95107.69;4988158;28;20275;-67
2021/03/26 03:50:57;;;;;;;36.67;18.77;;;;;;;3.04;57.16;95108.69;4959786;28;20174;-67
2021/03/26 03:53:50;;;;;;;40.83;18.52;;;;;;;2.88;57.83;95107.38;4980755;28;20185;-67
2021/03/26 03:56:44;;;;;;;40.83;19.02;;;;;;;2.87;58.40;95109.25;4980220;28;20190;-66
2021/03/26 03:59:31;;;;;;;33.55;17.20;;;;;;;2.99;57.80;95110.63;4966594;28;20204;-68
2021/03/26 04:01:59;;;;;;;35.17;16.33;;;;;;;2.87;57.35;95106.59;4972202;28;20229;-67
2021/03/26 04:04:44;;;;;;;36.10;16.75;;;;;;;2.74;58.59;95114.47;4924242;28;20182;-67
2021/03/26 04:07:18;;;;;;;39.10;17.08;;;;;;;2.84;57.48;95106.41;4955705;28;20669;-69
2021/03/26 04:09:53;;;;;;;31.27;16.13;;;;;;;2.58;57.43;95106.84;4939921;28;20214;-68
2021/03/26 04:12:22;;;;;;;27.58;14.60;;;;;;;2.74;56.25;95114.47;4941136;28;20240;-67
2021/03/26 04:14:55;;;;;;;30.60;15.27;;;;;;;2.86;54.80;95118.25;4955726;28;20549;-67
2021/03/26 04:17:26;;;;;;;27.73;16.48;;;;;;;2.91;55.31;95112.06;4939696;28;20338;-67
2021/03/26 04:19:55;;;;;;;38.80;20.50;;;;;;;3.11;55.39;95121.50;4939893;28;20206;-68
2021/03/26 04:22:23;;;;;;;49.38;22.50;;;;;;;3.16;55.88;95114.25;4938297;28;21063;-67
2021/03/26 04:24:57;;;;;;;40.25;20.92;;;;;;;3.03;55.84;95122.97;4937527;28;20244;-67
2021/03/26 04:27:29;;;;;;;46.00;22.02;;;;;;;2.97;55.75;95118.03;4940296;28;20194;-68
2021/03/26 04:30:07;;;;;;;39.08;18.92;;;;;;;2.83;56.13;95133.84;4939792;28;20257;-68
2021/03/26 04:32:32;;;;;;;44.25;21.15;;;;;;;2.53;57.67;95140.41;4955544;28;20167;-68
2021/03/26 04:34:58;;;;;;;40.97;19.40;;;;;;;2.66;56.33;95129.13;4955611;28;20170;-67
2021/03/26 04:37:45;;;;;;;35.43;18.37;;;;;;;2.81;56.12;95136.00;4972654;28;20229;-68
2021/03/26 04:40:30;;;;;;;35.28;18.35;;;;;;;2.75;55.97;95142.41;4972797;28;20210;-67
2021/03/26 04:43:02;;;;;;;41.15;20.45;;;;;;;2.80;55.36;95139.69;4971199;28;20879;-68
2021/03/26 04:45:46;;;;;;;37.47;18.00;;;;;;;2.75;55.03;95143.22;4972703;28;20192;-66
2021/03/26 04:48:38;;;;;;;38.10;17.55;;;;;;;2.63;55.45;95137.59;4972383;28;20182;-67
2021/03/26 04:51:35;;;;;;;37.03;18.85;;;;;;;2.55;55.08;95144.31;4952641;28;20181;-68
2021/03/26 04:54:11;;;;;;;35.47;16.95;;;;;;;2.52;55.07;95150.13;4955501;28;20186;-66
2021/03/26 04:56:41;;;;;;;32.90;15.00;;;;;;;2.68;54.59;95158.59;4954997;28;20557;-68
2021/03/26 04:59:07;;;;;;;29.92;16.42;;;;;;;2.71;54.86;95142.22;4939687;28;20221;-67
2021/03/26 05:01:32;;;;;;;34.70;16.63;;;;;;;2.63;55.95;95150.75;4939198;28;20175;-67
2021/03/26 05:04:09;;;;;;;34.63;17.40;;;;;;;2.70;55.36;95163.59;4939489;28;20202;-67
2021/03/26 05:06:42;;;;;;;30.02;15.38;;;;;;;2.54;56.05;95168.31;4958352;28;20225;-67
2021/03/26 05:09:27;;;;;;;28.25;14.00;;;;;;;2.61;55.04;95163.47;4959326;28;20170;-67
2021/03/26 05:12:05;;;;;;;31.35;15.63;;;;;;;2.54;56.48;95168.31;4943450;28;20182;-67
2021/03/26 05:14:46;;;;;;;30.45;15.35;;;;;;;2.58;55.52;95171.94;4960808;28;20197;-68
2021/03/26 05:17:23;;;;;;;29.02;14.23;;;;;;;2.72;55.17;95180.69;4959251;28;20198;-68
2021/03/26 05:19:51;;;;;;;26.80;14.68;;;;;;;2.34;55.47;95179.94;4943040;28;20229;-68
2021/03/26 05:22:28;;;;;;;28.30;14.70;;;;;;;2.65;55.31;95186.34;4976350;28;20171;-68
2021/03/26 05:24:55;;;;;;;31.60;15.10;;;;;;;2.42;56.00;95181.94;4959011;28;20217;-68
2021/03/26 05:27:21;;;;;;;30.17;15.70;;;;;;;2.75;55.51;95187.22;4943129;28;20179;-68
2021/03/26 05:29:49;;;;;;;37.33;16.13;;;;;;;3.01;55.22;95187.63;4958781;28;20318;-68
2021/03/26 05:32:20;;;;;;;33.28;15.45;;;;;;;3.06;54.58;95192.81;4943520;28;20174;-68
2021/03/26 05:35:08;;;;;;;33.75;14.98;;;;;;;3.01;55.32;95188.41;4943267;28;20175;-69
2021/03/26 05:37:33;;;;;;;31.48;14.48;;;;;;;3.18;54.02;95188.63;4961411;28;20170;-68
2021/03/26 05:40:25;;;;;;;33.50;15.23;;;;;;;3.15;54.32;95191.09;4975670;28;20217;-69
2021/03/26 05:43:12;;;;;;;34.40;14.77;;;;;;;3.41;53.67;95191.41;4944657;28;20182;-66
2021/03/26 05:45:43;;;;;;;29.58;14.07;;;;;;;3.34;53.61;95194.44;4958723;28;20174;-69
2021/03/26 05:48:36;;;;;;;31.15;14.82;;;;;;;3.59;53.20;95193.19;4958445;28;20178;-68
2021/03/26 05:51:32;;;;;;;35.70;14.68;;;;;;;3.75;52.47;95198.19;4958646;28;20538;-66
2021/03/26 05:54:31;;;;;;;36.30;16.33;;;;;;;3.89;51.90;95194.47;4975771;28;20181;-66
2021/03/26 05:57:05;;;;;;;31.50;14.75;;;;;;;3.75;52.72;95201.59;4958398;28;20186;-66
2021/03/26 06:00:09;;;;;;;37.20;14.48;;;;;;;3.95;51.08;95203.84;4957792;28;20201;-66
2021/03/26 06:02:35;;;;;;;29.70;14.68;;;;;;;3.64;52.75;95200.22;4958320;28;20256;-66
2021/03/26 06:05:29;;;;;;;26.07;13.27;;;;;;;4.01;51.80;95199.25;4958101;28;20182;-65
2021/03/26 06:07:57;;;;;;;28.63;14.85;;;;;;;4.06;52.61;95209.72;4942580;28;20229;-67
2021/03/26 06:10:59;;;;;;;35.10;14.80;;;;;;;4.27;51.50;95211.97;4958005;28;20178;-66
2021/03/26 06:13:52;;;;;;;31.92;14.52;;;;;;;3.64;54.27;95211.56;4975129;28;20185;-67
2021/03/26 06:16:40;;;;;;;29.15;15.00;;;;;;;3.86;53.74;95213.53;4974471;28;20680;-67
2021/03/26 06:19:26;;;;;;;32.03;15.18;;;;;;;4.15;53.05;95209.78;4975175;28;20217;-68
2021/03/26 06:22:02;;;;;;;33.60;15.77;;;;;;;4.42;53.42;95219.53;4957224;28;20577;-67
2021/03/26 06:25:02;;;;;;;30.08;13.77;;;;;;;4.82;50.15;95219.72;4957796;28;20214;-67
2021/03/26 06:27:46;;;;;;;35.00;15.68;;;;;;;4.88;52.37;95219.31;4957837;28;20190;-68
2021/03/26 06:30:25;;;;;;;34.50;15.68;;;;;;;5.02;50.61;95222.69;4974576;28;20185;-67
2021/03/26 06:33:21;;;;;;;25.92;14.20;;;;;;;5.14;50.94;95227.44;4959490;28;20170;-67
2021/03/26 06:35:58;;;;;;;30.57;13.73;;;;;;;5.11;51.37;95222.75;4975016;28;20237;-67
2021/03/26 06:38:45;;;;;;;28.93;14.53;;;;;;;5.31;49.23;95232.06;4941302;28;20473;-66
2021/03/26 06:41:22;;;;;;;34.13;14.30;;;;;;;5.63;47.79;95224.91;4974851;28;20414;-67
2021/03/26 06:44:00;;;;;;;36.40;14.23;;;;;;;5.54;47.97;95228.28;4974710;28;20924;-68
2021/03/26 06:46:37;;;;;;;30.73;15.63;;;;;;;5.64;48.20;95239.72;4974526;28;20422;-68
2021/03/26 06:49:10;;;;;;;41.43;16.87;;;;;;;5.82;45.85;95230.75;4957487;28;20440;-68
2021/03/26 06:52:02;;;;;;;29.67;14.77;;;;;;;5.74;47.47;95236.81;4941145;28;20519;-68
2021/03/26 06:54:48;;;;;;;41.07;15.50;;;;;;;5.74;49.45;95242.88;4899248;29;20523;-68
2021/03/26 06:57:22;;;;;;;31.20;14.07;;;;;;;5.93;46.56;95234.72;4915119;29;20511;-68
2021/03/26 07:00:16;;;;;;;31.97;14.93;;;;;;;6.02;46.68;95240.84;4914693;29;20483;-68
2021/03/26 07:03:09;;;;;;;35.60;14.87;;;;;;;6.30;45.82;95241.41;4914792;29;20441;-68
2021/03/26 07:06:17;;;;;;;29.60;14.03;;;;;;;6.27;45.33;95243.88;4914963;29;20975;-68
2021/03/26 07:08:59;;;;;;;20.53;11.37;;;;;;;6.21;44.92;95240.59;4876850;29;20426;-68
2021/03/26 07:11:46;;;;;;;18.80;10.70;;;;;;;6.44;43.43;95249.22;4861701;29;20477;-69
2021/03/26 07:14:48;;;;;;;26.50;11.20;;;;;;;6.55;44.02;95244.41;4864131;29;20801;-68
2021/03/26 07:17:22;;;;;;;21.93;11.73;;;;;;;6.76;43.26;95248.00;4863935;29;20481;-67
2021/03/26 07:20:03;;;;;;;22.47;10.70;;;;;;;6.91;42.61;95251.31;4877078;29;20543;-68
2021/03/26 07:22:47;;;;;;;22.70;10.57;;;;;;;6.87;44.46;95240.53;4862043;29;20465;-69
2021/03/26 07:25:28;;;;;;;16.43;8.87;;;;;;;6.99;42.44;95242.56;4876560;29;20470;-67
2021/03/26 07:28:36;;;;;;;19.83;9.17;;;;;;;6.95;42.79;95249.56;4876005;29;20528;-69
2021/03/26 07:31:29;;;;;;;15.27;9.30;;;;;;;7.25;43.13;95247.88;4869001;29;20449;-69
2021/03/26 07:34:03;;;;;;;15.57;8.57;;;;;;;7.37;42.02;95240.81;4882040;29;20956;-68
2021/03/26 07:36:55;;;;;;;17.93;8.73;;;;;;;7.43;42.32;95246.72;4880789;29;20838;-69
2021/03/26 07:39:39;;;;;;;14.10;8.57;;;;;;;7.55;40.41;95254.06;4864698;29;20866;-68
2021/03/26 07:42:04;;;;;;;16.33;8.07;;;;;;;7.62;40.25;95249.81;4895270;29;20436;-68
2021/03/26 07:44:44;;;;;;;17.57;7.80;;;;;;;7.51;41.57;95247.81;4895311;29;20421;-68
2021/03/26 07:47:28;;;;;;;13.77;7.27;;;;;;;7.30;40.43;95255.66;4973482;28;20174;-68
2021/03/26 07:50:25;;;;;;;15.67;9.03;;;;;;;7.40;42.23;95256.09;4973585;28;20414;-69
2021/03/26 07:53:09;;;;;;;13.63;7.53;;;;;;;7.65;40.65;95267.00;4941574;28;20429;-67
2021/03/26 07:55:40;;;;;;;16.73;8.10;;;;;;;7.81;41.03;95262.75;4973131;28;20413;-67
2021/03/26 07:58:44;;;;;;;19.37;8.67;;;;;;;8.07;39.65;95267.97;4973323;28;20430;-68
2021/03/26 08:01:47;;;;;;;12.07;7.53;;;;;;;7.91;39.15;95267.72;4973341;28;20935;-67
2021/03/26 08:04:59;;;;;;;15.87;8.30;;;;;;;8.01;41.01;95277.22;4973186;28;20920;-68
2021/03/26 08:07:43;;;;;;;16.30;8.10;;;;;;;8.16;39.97;95279.34;4894887;29;20532;-67
2021/03/26 08:10:09;;;;;;;16.87;7.87;;;;;;;8.46;39.49;95274.06;4894670;29;20512;-68
2021/03/26 08:12:49;;;;;;;12.70;7.57;;;;;;;8.39;39.82;95287.09;4894922;29;21011;-68
2021/03/26 08:15:36;;;;;;;19.57;8.40;;;;;;;8.34;39.59;95285.38;4894728;29;20200;-68
2021/03/26 08:18:52;;;;;;;16.77;8.73;;;;;;;8.53;39.12;95295.66;4879095;29;20508;-68
2021/03/26 08:21:54;;;;;;;14.47;8.13;;;;;;;8.81;37.70;95292.50;4838945;29;20427;-68
2021/03/26 08:24:54;;;;;;;13.70;7.93;;;;;;;8.84;37.83;95292.63;4738548;30;20582;-68
2021/03/26 08:27:34;;;;;;;16.53;8.00;;;;;;;8.67;38.38;95298.84;4748847;30;20437;-67
2021/03/26 08:30:24;;;;;;;19.67;9.00;;;;;;;8.81;38.07;95297.81;4748945;30;20432;-68
2021/03/26 08:33:08;;;;;;;15.83;7.63;;;;;;;8.89;39.36;95300.44;4748970;30;20513;-68
2021/03/26 08:36:03;;;;;;;17.43;8.00;;;;;;;9.14;37.93;95304.00;4748552;30;20851;-66
2021/03/26 08:38:29;;;;;;;15.83;8.43;;;;;;;9.06;37.41;95296.88;4748455;30;20476;-67
2021/03/26 08:41:30;;;;;;;13.20;7.80;;;;;;;9.25;38.69;95297.19;4762052;30;20810;-67
2021/03/26 08:43:56;;;;;;;15.23;7.60;;;;;;;9.35;38.51;95308.56;4777986;30;20681;-67
2021/03/26 08:46:42;;;;;;;13.83;8.17;;;;;;;9.32;36.92;95299.34;4784346;29;20477;-68
2021/03/26 08:49:33;;;;;;;15.73;7.63;;;;;;;9.48;37.80;95299.50;4784178;29;20185;-66
2021/03/26 08:52:20;;;;;;;17.03;7.20;;;;;;;9.40;38.17;95300.38;4783916;29;20821;-67
2021/03/26 08:55:09;;;;;;;14.70;7.93;;;;;;;9.30;37.45;95296.22;4784037;30;20476;-67
2021/03/26 08:58:05;;;;;;;15.70;7.67;;;;;;;9.50;37.46;95300.75;4860750;28;20433;-66
2021/03/26 09:00:49;;;;;;;16.03;7.80;;;;;;;9.64;37.28;95303.13;4972251;28;20976;-66
2021/03/26 09:03:20;;;;;;;11.90;7.33;;;;;;;9.73;36.64;95305.72;4955229;28;20425;-67
2021/03/26 09:06:11;;;;;;;17.63;8.00;;;;;;;9.92;35.53;95303.31;4955092;28;20418;-67
2021/03/26 09:08:53;;;;;;;12.50;7.83;;;;;;;10.00;35.79;95304.34;4972275;28;20948;-66
2021/03/26 09:11:40;;;;;;;15.83;8.80;;;;;;;10.11;36.08;95310.03;4939643;28;20448;-67
2021/03/26 09:14:27;;;;;;;15.80;8.20;;;;;;;9.56;35.20;95303.22;4939032;28;20434;-67
2021/03/26 09:16:58;;;;;;;14.17;7.00;;;;;;;9.37;36.80;95298.34;4972544;28;20421;-67
2021/03/26 09:19:48;;;;;;;12.57;8.20;;;;;;;9.65;35.67;95303.91;4939062;28;20480;-66
2021/03/26 09:22:34;;;;;;;10.87;7.07;;;;;;;9.78;35.66;95302.84;4972311;28;20449;-66
2021/03/26 09:25:29;;;;;;;13.40;7.70;;;;;;;9.83;36.71;95302.66;4955062;28;20504;-66
2021/03/26 09:27:59;;;;;;;9.20;6.63;;;;;;;9.94;34.28;95289.66;4894005;29;20429;-66
2021/03/26 09:30:30;;;;;;;18.50;7.47;;;;;;;10.03;34.36;95298.34;4878480;29;20534;-67
2021/03/26 09:32:58;;;;;;;18.83;7.13;;;;;;;9.89;34.07;95298.66;4878459;29;20482;-66
2021/03/26 09:35:36;;;;;;;10.13;7.10;;;;;;;9.84;34.67;95287.41;4863076;29;20437;-67
2021/03/26 09:38:08;;;;;;;10.73;6.60;;;;;;;10.30;34.06;95288.97;4893960;29;20429;-66
2021/03/26 09:41:00;;;;;;;11.23;6.70;;;;;;;10.51;35.02;95299.53;4893764;29;20430;-68
2021/03/26 09:43:41;;;;;;;11.00;6.27;;;;;;;10.50;36.18;95298.00;4893968;29;20457;-66
2021/03/26 09:46:09;;;;;;;15.80;6.97;;;;;;;10.77;33.94;95299.94;4878047;29;20945;-66
2021/03/26 09:48:54;;;;;;;13.03;7.50;;;;;;;10.47;31.73;95301.31;4862946;29;20504;-67
2021/03/26 09:51:23;;;;;;;18.20;7.73;;;;;;;10.14;34.09;95288.78;4881402;29;20469;-66
2021/03/26 09:53:49;;;;;;;14.27;7.70;;;;;;;10.21;34.75;95289.06;4881715;29;20430;-67
2021/03/26 09:56:17;;;;;;;16.57;7.87;;;;;;;10.42;34.96;95288.19;4876072;29;20456;-66
2021/03/26 09:58:50;;;;;;;15.53;7.27;;;;;;;10.51;34.17;95291.53;4890814;29;20310;-67
2021/03/26 10:01:24;;;;;;;11.00;7.10;;;;;;;10.45;33.93;95284.84;4865345;29;20958;-67
2021/03/26 10:03:54;;;;;;;12.53;7.53;;;;;;;10.39;34.47;95288.88;4886107;29;20496;-66
2021/03/26 10:06:36;;;;;;;14.63;7.10;;;;;;;10.41;34.18;95291.97;4961161;28;20460;-67
2021/03/26 10:12:01;;;;;;;16.13;7.77;;;;;;;10.38;33.43;95281.94;4962069;28;20837;-67
2021/03/26 10:14:45;;;;;;;11.33;7.57;;;;;;;10.27;33.48;95271.72;4957761;28;20429;-67
2021/03/26 10:17:10;;;;;;;13.50;6.90;;;;;;;10.58;35.94;95278.41;4943135;28;20484;-67
2021/03/26 10:19:49;;;;;;;12.97;6.43;;;;;;;10.79;34.93;95262.25;4974934;28;20840;-67
2021/03/26 10:22:47;;;;;;;10.87;7.27;;;;;;;10.82;32.99;95264.22;4942618;28;20253;-67
2021/03/26 10:25:29;;;;;;;11.97;7.00;;;;;;;10.42;33.72;95274.84;4956858;28;20470;-67
2021/03/26 10:28:03;;;;;;;11.57;7.17;;;;;;;10.37;34.48;95272.38;4974817;28;20488;-67
2021/03/26 10:30:37;;;;;;;10.33;6.60;;;;;;;10.45;34.12;95271.50;4974861;28;20789;-67
2021/03/26 10:33:05;;;;;;;15.53;7.23;;;;;;;10.41;33.97;95268.72;4942347;28;20429;-67
2021/03/26 10:35:31;;;;;;;16.20;7.70;;;;;;;10.35;33.88;95266.63;4957771;28;20917;-67
2021/03/26 10:38:00;;;;;;;20.50;7.10;;;;;;;10.34;35.44;95257.81;4974867;28;20418;-67
2021/03/26 10:40:37;;;;;;;17.33;8.10;;;;;;;10.40;34.42;95258.38;4974757;28;20209;-68
2021/03/26 10:43:30;;;;;;;13.37;7.50;;;;;;;10.54;33.28;95267.59;4942134;28;20449;-67
2021/03/26 10:46:12;;;;;;;11.13;7.43;;;;;;;10.49;34.30;95264.38;4959295;28;20926;-68
2021/03/26 10:48:54;;;;;;;12.33;6.60;;;;;;;10.76;34.34;95269.03;4925534;28;20879;-68
2021/03/26 10:51:38;;;;;;;13.97;7.63;;;;;;;10.98;35.08;95266.97;4957378;28;20426;-68
2021/03/26 10:54:19;;;;;;;12.37;7.50;;;;;;;11.37;33.63;95263.50;4974235;28;20422;-68
2021/03/26 10:56:52;;;;;;;14.67;7.63;;;;;;;11.55;32.93;95266.66;4974683;28;20457;-68
2021/03/26 10:59:39;;;;;;;10.13;6.50;;;;;;;11.51;34.43;95260.47;4940793;28;20473;-68
2021/03/26 11:02:18;;;;;;;13.63;7.73;;;;;;;11.42;33.44;95267.06;4974298;28;20414;-68
2021/03/26 11:04:44;;;;;;;14.87;7.33;;;;;;;11.66;33.41;95258.94;4953666;28;20422;-68
2021/03/26 11:07:13;;;;;;;16.53;7.47;;;;;;;11.80;33.09;95263.88;4935223;28;20795;-68
2021/03/26 11:09:44;;;;;;;15.67;7.90;;;;;;;11.55;32.98;95252.53;4933920;28;20236;-67
2021/03/26 11:12:45;;;;;;;13.67;7.53;;;;;;;11.53;33.45;95255.53;4940670;28;20433;-67
2021/03/26 11:15:22;;;;;;;15.30;7.63;;;;;;;11.99;34.09;95256.00;4891685;29;20523;-67
2021/03/26 11:18:14;;;;;;;15.30;6.93;;;;;;;11.82;33.78;95251.75;4895471;29;20432;-67
2021/03/26 11:20:43;;;;;;;14.90;7.60;;;;;;;12.01;31.61;95259.13;4889586;29;20433;-66
2021/03/26 11:23:12;;;;;;;12.13;6.87;;;;;;;11.41;30.51;95258.28;4883157;29;20492;-67
2021/03/26 11:25:39;;;;;;;13.80;6.80;;;;;;;11.57;30.73;95248.41;4913911;29;20894;-70
2021/03/26 11:28:14;;;;;;;8.90;5.80;;;;;;;11.89;31.82;95251.91;4871634;29;20842;-67
2021/03/26 11:31:13;;;;;;;11.23;6.10;;;;;;;12.18;29.14;95252.66;4872674;29;20469;-68
2021/03/26 11:33:55;;;;;;;18.43;6.53;;;;;;;12.41;30.47;95239.41;4893259;29;20428;-68
2021/03/26 11:36:23;;;;;;;11.23;6.70;;;;;;;12.45;28.98;95246.38;4884650;29;20425;-67
2021/03/26 11:39:17;;;;;;;11.17;6.27;;;;;;;12.39;29.11;95247.00;4912689;29;20475;-68
2021/03/26 11:41:55;;;;;;;10.97;6.83;;;;;;;12.38;29.34;95240.09;4901049;29;20440;-67
2021/03/26 11:44:21;;;;;;;12.50;6.63;;;;;;;12.32;30.72;95231.56;4913879;29;20463;-68
2021/03/26 11:46:51;;;;;;;15.87;7.93;;;;;;;12.31;29.46;95235.34;4882933;29;20439;-68
2021/03/26 11:49:28;;;;;;;11.03;6.87;;;;;;;11.89;30.01;95232.41;4883555;29;20439;-68
2021/03/26 11:52:04;;;;;;;13.67;7.33;;;;;;;11.85;31.52;95235.00;4903751;28;20428;-70
2021/03/26 11:54:42;;;;;;;15.83;7.67;;;;;;;11.81;32.14;95223.44;4956757;28;20465;-68
2021/03/26 11:57:26;;;;;;;13.80;6.57;;;;;;;12.04;31.27;95225.53;4956463;28;20825;-68
2021/03/26 12:00:16;;;;;;;9.67;6.03;;;;;;;11.90;31.54;95225.97;4973174;28;20492;-68
2021/03/26 12:02:55;;;;;;;10.80;6.83;;;;;;;11.98;31.70;95222.31;4955983;28;20453;-67
2021/03/26 12:05:33;;;;;;;12.40;6.07;;;;;;;12.28;31.02;95227.22;4956184;28;20432;-67
2021/03/26 12:08:55;;;;;;;13.37;6.60;;;;;;;12.10;30.75;95224.13;4973169;28;20409;-67
2021/03/26 12:11:28;;;;;;;12.53;7.03;;;;;;;12.09;31.87;95217.22;4913499;29;20460;-67
2021/03/26 12:14:05;;;;;;;13.30;7.73;;;;;;;12.01;33.05;95221.66;4913318;29;21038;-67
2021/03/26 12:16:32;;;;;;;11.67;6.83;;;;;;;12.20;32.12;95218.25;4913593;29;20420;-68
2021/03/26 12:19:02;;;;;;;16.10;7.00;;;;;;;12.14;31.41;95215.06;4898223;29;20515;-68